Time;durP1;ratioP1;P1;durP2;ratioP2;P2;SDS_P1;SDS_P2;PMS_P1;PMS_P2;Temp;Humidity;BMP_temperature;BMP_pressure;BME280_temperature;BME280_humidity;BME280_pressure;Samples;Min_cycle;Max_cycle;Signal;HPM_P1;HPM_P2
2021/03/21 00:01:27;;;;;;;20.92;8.38;;;10.70;64.30;;;;;;4907561;28;20040;-65
2021/03/21 00:03:53;;;;;;;21.33;8.07;;;10.70;64.30;;;;;;4906980;28;20187;-64
2021/03/21 00:06:19;;;;;;;22.17;8.35;;;10.70;64.30;;;;;;4911835;28;20206;-64
2021/03/21 00:08:45;;;;;;;17.73;8.40;;;10.80;64.40;;;;;;4906138;28;20513;-63
2021/03/21 00:11:10;;;;;;;24.95;9.32;;;10.80;64.40;;;;;;4902857;28;20371;-64
2021/03/21 00:13:36;;;;;;;20.02;8.88;;;10.80;64.40;;;;;;4919473;28;20107;-65
2021/03/21 00:16:06;;;;;;;25.02;9.60;;;10.80;64.30;;;;;;4911392;28;23966;-63
2021/03/21 00:18:35;;;;;;;28.80;9.40;;;10.80;64.40;;;;;;4908118;28;22318;-64
2021/03/21 00:21:01;;;;;;;25.27;10.57;;;10.80;64.50;;;;;;4903873;28;20908;-63
2021/03/21 00:23:26;;;;;;;28.13;10.27;;;10.80;64.50;;;;;;4900100;28;20043;-63
2021/03/21 00:25:52;;;;;;;38.40;10.77;;;10.80;64.50;;;;;;4902455;29;20039;-64
2021/03/21 00:28:22;;;;;;;29.00;10.50;;;10.80;64.50;;;;;;4905030;29;20509;-65
2021/03/21 00:30:49;;;;;;;31.33;11.27;;;10.80;64.60;;;;;;4900686;28;20047;-65
2021/03/21 00:33:20;;;;;;;36.72;11.77;;;10.80;64.60;;;;;;4904270;29;20047;-64
2021/03/21 00:35:48;;;;;;;36.85;11.98;;;10.80;64.60;;;;;;4900683;28;20027;-64
2021/03/21 00:38:23;;;;;;;38.60;12.27;;;10.80;64.70;;;;;;4897429;28;20035;-65
2021/03/21 00:40:50;;;;;;;44.20;12.00;;;10.80;64.80;;;;;;4910215;28;20059;-64
2021/03/21 00:43:16;;;;;;;41.78;12.85;;;10.90;64.80;;;;;;4906501;28;20137;-65
2021/03/21 00:45:42;;;;;;;48.30;14.38;;;10.90;64.80;;;;;;4913203;28;20887;-65
2021/03/21 00:48:17;;;;;;;45.22;14.52;;;10.90;64.90;;;;;;4907046;28;20044;-65
2021/03/21 00:50:42;;;;;;;53.42;14.65;;;10.90;64.80;;;;;;4905403;29;20036;-63
2021/03/21 00:53:08;;;;;;;44.03;14.50;;;10.90;64.90;;;;;;4899100;29;20067;-63
2021/03/21 00:55:35;;;;;;;47.13;16.00;;;10.90;64.60;;;;;;4920199;28;20123;-64
2021/03/21 00:58:02;;;;;;;47.83;16.75;;;10.90;64.90;;;;;;4900668;28;22209;-63
2021/03/21 01:00:40;;;;;;;44.50;16.48;;;10.90;64.90;;;;;;4907337;29;20043;-63
2021/03/21 01:03:07;;;;;;;50.42;17.20;;;11.00;65.00;;;;;;4907379;28;20032;-63
2021/03/21 01:05:47;;;;;;;55.08;18.75;;;11.00;65.00;;;;;;4909747;28;20113;-63
2021/03/21 01:08:39;;;;;;;54.45;17.60;;;11.00;65.10;;;;;;4904331;28;20043;-66
2021/03/21 01:11:15;;;;;;;51.97;18.65;;;11.00;65.00;;;;;;4908643;28;20047;-64
2021/03/21 01:13:42;;;;;;;47.97;17.08;;;11.00;65.10;;;;;;4906640;29;20332;-63
2021/03/21 01:16:12;;;;;;;52.13;17.83;;;11.10;65.10;;;;;;4908897;28;20036;-64
2021/03/21 01:18:40;;;;;;;52.17;17.30;;;11.10;65.10;;;;;;4911933;28;20039;-64
2021/03/21 01:21:11;;;;;;;55.40;18.10;;;11.10;65.10;;;;;;4918673;28;20138;-63
2021/03/21 01:23:41;;;;;;;47.75;17.88;;;11.10;65.10;;;;;;4905570;29;24026;-64
2021/03/21 01:26:13;;;;;;;50.78;17.17;;;11.10;65.80;;;;;;4912319;29;20071;-63
2021/03/21 01:28:41;;;;;;;44.40;17.35;;;11.10;65.10;;;;;;4906957;29;20048;-64
2021/03/21 01:31:15;;;;;;;46.22;16.55;;;11.10;65.10;;;;;;4912334;28;20046;-63
2021/03/21 01:33:41;;;;;;;45.45;16.35;;;11.10;65.10;;;;;;4915042;28;20047;-64
2021/03/21 01:36:14;;;;;;;56.35;16.05;;;11.10;65.10;;;;;;4907337;28;20288;-64
2021/03/21 01:38:40;;;;;;;51.15;17.05;;;11.10;65.90;;;;;;4907607;28;20040;-63
2021/03/21 01:41:11;;;;;;;43.47;16.65;;;11.10;65.10;;;;;;4915604;29;20048;-64
2021/03/21 01:43:41;;;;;;;42.00;16.38;;;11.10;64.80;;;;;;4911347;28;20506;-63
2021/03/21 01:46:13;;;;;;;40.92;15.70;;;11.20;65.10;;;;;;4917670;29;20046;-63
2021/03/21 01:48:56;;;;;;;37.33;14.52;;;11.10;65.10;;;;;;4910027;28;20035;-64
2021/03/21 01:51:32;;;;;;;36.83;13.43;;;11.20;65.90;;;;;;4913728;28;20042;-63
2021/03/21 01:54:07;;;;;;;36.85;13.10;;;11.10;65.00;;;;;;4915766;29;20042;-64
2021/03/21 01:56:34;;;;;;;35.38;12.40;;;11.10;65.10;;;;;;4919656;28;20051;-64
2021/03/21 01:59:11;;;;;;;35.60;12.32;;;11.10;65.10;;;;;;4921814;29;20500;-63
2021/03/21 02:01:37;;;;;;;31.40;11.10;;;11.10;65.10;;;;;;4917355;28;20036;-64
2021/03/21 02:04:03;;;;;;;30.27;11.52;;;11.10;65.10;;;;;;4915042;29;20051;-64
2021/03/21 02:06:35;;;;;;;37.90;12.02;;;11.10;65.20;;;;;;4933147;28;20204;-64
2021/03/21 02:09:22;;;;;;;30.42;11.10;;;11.10;65.30;;;;;;4911293;28;20043;-63
2021/03/21 02:11:52;;;;;;;24.65;9.65;;;11.10;65.20;;;;;;4925117;28;20116;-63
2021/03/21 02:14:53;;;;;;;30.15;9.35;;;11.10;65.20;;;;;;4919008;28;20135;-64
2021/03/21 02:17:37;;;;;;;21.17;7.75;;;11.00;65.10;;;;;;4905784;28;20454;-64
2021/03/21 02:20:24;;;;;;;21.80;7.72;;;11.10;65.30;;;;;;4915240;29;20046;-64
2021/03/21 02:23:00;;;;;;;17.35;7.13;;;11.00;65.30;;;;;;4912040;29;20033;-64
2021/03/21 02:25:53;;;;;;;18.48;6.55;;;11.00;66.00;;;;;;4919847;28;20043;-64
2021/03/21 02:28:32;;;;;;;13.73;6.40;;;11.00;65.40;;;;;;4930399;28;20174;-64
2021/03/21 02:31:15;;;;;;;11.88;5.70;;;11.00;65.40;;;;;;4924686;28;20409;-64
2021/03/21 02:34:13;;;;;;;13.07;5.65;;;;;;;;;;4919524;28;21604;-64
2021/03/21 02:36:50;;;;;;;12.32;4.90;;;;;;;;;;4866199;29;20163;-64
2021/03/21 02:39:26;;;;;;;10.32;4.65;;;;;;;;;;4914884;28;20572;-64
2021/03/21 02:42:16;;;;;;;10.95;4.40;;;11.00;65.40;;;;;;4922171;29;20126;-64
2021/03/21 02:44:54;;;;;;;12.80;4.40;;;11.00;65.30;;;;;;4917455;28;20059;-64
2021/03/21 02:47:28;;;;;;;8.93;4.40;;;11.00;65.40;;;;;;4914322;29;20107;-64
2021/03/21 02:49:59;;;;;;;11.45;4.28;;;11.00;65.40;;;;;;4915349;28;20047;-63
2021/03/21 02:52:42;;;;;;;11.82;4.53;;;11.00;65.40;;;;;;4911223;28;20632;-63
2021/03/21 02:55:19;;;;;;;12.00;3.80;;;11.00;66.10;;;;;;4914702;29;20051;-63
2021/03/21 02:57:55;;;;;;;12.48;3.83;;;10.90;65.90;;;;;;4912948;29;20032;-64
2021/03/21 03:00:26;;;;;;;13.25;4.07;;;10.90;65.10;;;;;;4920407;28;20228;-64
2021/03/21 03:02:54;;;;;;;11.85;4.00;;;10.90;65.00;;;;;;4919436;29;20086;-64
2021/03/21 03:05:25;;;;;;;8.80;3.40;;;10.90;65.00;;;;;;4906421;29;20131;-64
2021/03/21 03:07:59;;;;;;;14.60;3.80;;;10.90;65.70;;;;;;4911965;28;20040;-64
2021/03/21 03:10:35;;;;;;;10.95;3.70;;;10.90;65.00;;;;;;4923151;28;20509;-63
2021/03/21 03:13:10;;;;;;;14.27;4.13;;;10.90;65.00;;;;;;4917426;29;20046;-63
2021/03/21 03:15:38;;;;;;;13.63;3.72;;;10.80;64.80;;;;;;4916868;28;20402;-64
2021/03/21 03:18:43;;;;;;;14.88;3.78;;;10.90;65.00;;;;;;4918216;28;20032;-64
2021/03/21 03:21:21;;;;;;;12.57;3.65;;;10.80;64.80;;;;;;4915490;28;20184;-64
2021/03/21 03:24:01;;;;;;;9.13;3.28;;;10.90;65.50;;;;;;4910759;28;20505;-64
2021/03/21 03:26:40;;;;;;;13.68;3.58;;;10.80;64.70;;;;;;4914812;29;20094;-64
2021/03/21 03:29:16;;;;;;;18.83;4.07;;;10.90;64.80;;;;;;4918117;28;20078;-63
2021/03/21 03:32:01;;;;;;;17.42;3.80;;;10.90;64.80;;;;;;4912492;28;20058;-64
2021/03/21 03:34:29;;;;;;;16.10;3.78;;;10.90;64.70;;;;;;4914857;28;20031;-64
2021/03/21 03:36:54;;;;;;;13.50;4.22;;;10.90;64.60;;;;;;4914706;29;20035;-63
2021/03/21 03:39:22;;;;;;;19.90;4.30;;;10.80;64.50;;;;;;4904374;28;20046;-63
2021/03/21 03:42:06;;;;;;;19.10;4.38;;;10.80;65.30;;;;;;4909503;28;20043;-64
2021/03/21 03:44:43;;;;;;;11.15;3.85;;;10.90;64.60;;;;;;4920059;28;20046;-63
2021/03/21 03:47:19;;;;;;;15.00;4.72;;;10.80;64.50;;;;;;4913040;28;20571;-63
2021/03/21 03:49:59;;;;;;;13.38;4.07;;;10.80;64.50;;;;;;4918193;28;20043;-64
2021/03/21 03:52:25;;;;;;;14.50;4.13;;;;;;;;;;4912398;28;20552;-64
2021/03/21 03:55:01;;;;;;;20.23;4.25;;;10.80;64.60;;;;;;4910106;29;20122;-64
2021/03/21 03:57:29;;;;;;;12.20;3.88;;;10.80;64.50;;;;;;4909967;28;20039;-63
2021/03/21 04:00:01;;;;;;;17.60;3.85;;;10.80;64.50;;;;;;4922914;28;20035;-64
2021/03/21 04:03:00;;;;;;;14.48;3.72;;;10.80;64.60;;;;;;4909846;29;20222;-64
2021/03/21 04:05:45;;;;;;;20.25;4.35;;;10.70;64.60;;;;;;4915959;28;20436;-64
2021/03/21 04:08:36;;;;;;;20.08;4.53;;;10.80;64.60;;;;;;4915565;28;20032;-63
2021/03/21 04:11:30;;;;;;;8.98;3.40;;;10.80;64.60;;;;;;4923338;28;20039;-64
2021/03/21 04:14:18;;;;;;;12.95;3.55;;;10.80;64.60;;;;;;4914723;29;20048;-63
2021/03/21 04:17:11;;;;;;;13.10;3.42;;;10.70;64.40;;;;;;4910181;28;20040;-64
2021/03/21 04:19:41;;;;;;;11.05;3.22;;;10.70;64.60;;;;;;4926613;28;20036;-64
2021/03/21 04:22:16;;;;;;;16.85;3.97;;;10.70;64.70;;;;;;4912957;28;20047;-64
2021/03/21 04:24:52;;;;;;;16.67;3.17;;;10.70;64.70;;;;;;4909758;29;20079;-64
2021/03/21 04:27:45;;;;;;;16.10;3.03;;;10.70;64.60;;;;;;4917847;28;20538;-64
2021/03/21 04:30:17;;;;;;;15.85;3.17;;;10.80;64.70;;;;;;4914747;29;20039;-64
2021/03/21 04:32:51;;;;;;;17.52;3.53;;;10.80;64.60;;;;;;4904144;28;20048;-64
2021/03/21 04:35:33;;;;;;;19.73;3.75;;;10.80;64.60;;;;;;4923112;28;20131;-63
2021/03/21 04:38:02;;;;;;;23.25;3.13;;;10.80;64.50;;;;;;4912024;28;20040;-64
2021/03/21 04:40:31;;;;;;;16.23;3.05;;;10.80;64.50;;;;;;4925521;28;20058;-64
2021/03/21 04:43:19;;;;;;;24.23;3.08;;;10.80;64.50;;;;;;4910309;29;20581;-64
2021/03/21 04:45:50;;;;;;;26.90;2.95;;;10.80;64.50;;;;;;4917106;28;20651;-63
2021/03/21 04:48:21;;;;;;;19.42;2.35;;;10.80;64.40;;;;;;4915495;28;20091;-63
2021/03/21 04:50:51;;;;;;;17.80;3.28;;;10.70;64.40;;;;;;4917843;29;20035;-64
2021/03/21 04:53:39;;;;;;;12.98;2.38;;;10.70;64.40;;;;;;4916037;28;20043;-64
2021/03/21 04:56:23;;;;;;;15.75;2.20;;;10.70;64.40;;;;;;4919978;28;20405;-63
2021/03/21 04:58:52;;;;;;;17.42;2.72;;;10.70;64.40;;;;;;4908413;28;20123;-63
2021/03/21 05:01:34;;;;;;;30.95;3.70;;;10.70;64.40;;;;;;4910486;28;20028;-63
2021/03/21 05:04:15;;;;;;;21.50;2.78;;;10.70;64.30;;;;;;4911337;29;20036;-63
2021/03/21 05:06:43;;;;;;;15.35;3.40;;;10.70;64.30;;;;;;4918007;29;20119;-63
2021/03/21 05:09:24;;;;;;;23.92;4.18;;;10.70;64.20;;;;;;4916687;28;20055;-63
2021/03/21 05:11:58;;;;;;;29.70;4.20;;;10.70;64.00;;;;;;4906220;28;20429;-64
2021/03/21 05:14:38;;;;;;;29.45;3.15;;;10.70;63.90;;;;;;4916712;28;20414;-64
2021/03/21 05:17:41;;;;;;;25.38;3.72;;;10.70;63.90;;;;;;4926321;28;20044;-64
2021/03/21 05:20:16;;;;;;;23.95;4.38;;;10.70;63.70;;;;;;4915380;29;20111;-64
2021/03/21 05:23:06;;;;;;;27.52;4.43;;;10.70;63.60;;;;;;4912172;28;20073;-64
2021/03/21 05:25:37;;;;;;;27.58;3.63;;;10.70;63.70;;;;;;4917430;29;20051;-64
2021/03/21 05:28:15;;;;;;;30.58;4.28;;;10.70;63.80;;;;;;4918772;28;20401;-63
2021/03/21 05:30:40;;;;;;;32.20;4.22;;;10.60;63.40;;;;;;4910335;28;20039;-63
2021/03/21 05:33:07;;;;;;;27.90;3.72;;;10.70;63.30;;;;;;4912602;29;20468;-64
2021/03/21 05:35:36;;;;;;;31.27;3.72;;;10.60;63.10;;;;;;4918528;29;21060;-64
2021/03/21 05:38:31;;;;;;;38.00;4.45;;;10.60;62.90;;;;;;4923203;28;20489;-63
2021/03/21 05:41:41;;;;;;;33.28;4.72;;;10.60;62.60;;;;;;4911214;28;20099;-63
2021/03/21 05:44:31;;;;;;;35.42;5.25;;;10.60;62.60;;;;;;4933562;23;20465;-68
2021/03/21 05:47:18;;;;;;;36.72;5.22;;;10.50;62.20;;;;;;4954779;28;20067;-70
2021/03/21 05:50:05;;;;;;;30.50;4.18;;;10.50;62.20;;;;;;4918539;28;20130;-68
2021/03/21 05:53:03;;;;;;;36.63;4.75;;;10.40;62.00;;;;;;4923395;28;20520;-68
2021/03/21 05:55:57;;;;;;;43.92;4.85;;;10.50;61.90;;;;;;4920472;28;20039;-68
2021/03/21 05:58:54;;;;;;;44.78;5.22;;;10.50;61.80;;;;;;4916931;28;20156;-68
2021/03/21 06:01:49;;;;;;;39.42;5.07;;;10.50;61.40;;;;;;4920567;28;20050;-69
2021/03/21 06:04:30;;;;;;;44.78;6.80;;;10.50;61.20;;;;;;4923533;28;20032;-68
2021/03/21 06:07:38;;;;;;;34.70;5.95;;;10.50;61.00;;;;;;4926246;28;20075;-66
2021/03/21 06:10:10;;;;;;;27.75;4.53;;;10.50;60.70;;;;;;4921120;28;20043;-68
2021/03/21 06:13:06;;;;;;;37.35;5.05;;;10.40;60.10;;;;;;4922661;28;20744;-69
2021/03/21 06:16:18;;;;;;;45.92;6.10;;;10.40;60.00;;;;;;4922639;28;20050;-69
2021/03/21 06:19:19;;;;;;;48.40;6.88;;;10.40;59.90;;;;;;4911645;28;20047;-67
2021/03/21 06:22:07;;;;;;;55.10;6.18;;;10.40;59.80;;;;;;4940273;28;20161;-67
2021/03/21 06:25:26;;;;;;;40.10;6.35;;;10.40;59.50;;;;;;4942689;28;20382;-67
2021/03/21 06:28:03;;;;;;;44.55;5.90;;;10.40;59.60;;;;;;4924462;28;20054;-67
2021/03/21 06:30:31;;;;;;;43.20;5.75;;;10.40;59.10;;;;;;4935173;28;20094;-67
2021/03/21 06:33:18;;;;;;;39.80;5.65;;;10.40;59.00;;;;;;4929542;28;20039;-67
2021/03/21 06:36:25;;;;;;;39.35;6.07;;;10.40;59.00;;;;;;4933474;28;20031;-67
2021/03/21 06:39:09;;;;;;;58.35;6.90;;;10.40;59.00;;;;;;4917857;28;20435;-67
2021/03/21 06:41:53;;;;;;;38.88;5.40;;;10.40;58.80;;;;;;4928564;28;20236;-67
2021/03/21 06:44:45;;;;;;;37.17;5.80;;;10.40;58.60;;;;;;4933596;28;20043;-67
2021/03/21 06:47:43;;;;;;;45.33;6.43;;;10.40;59.40;;;;;;4917423;28;20039;-67
2021/03/21 06:50:40;;;;;;;44.08;7.50;;;10.50;58.80;;;;;;4937788;28;20078;-67
2021/03/21 06:53:23;;;;;;;41.67;6.35;;;10.50;58.60;;;;;;4923786;28;20063;-67
2021/03/21 06:56:17;;;;;;;36.33;6.50;;;10.60;59.10;;;;;;4929318;28;20040;-67
2021/03/21 06:59:12;;;;;;;45.65;6.57;;;10.60;58.20;;;;;;4923869;28;20046;-67
2021/03/21 07:01:45;;;;;;;45.20;6.28;;;10.70;58.20;;;;;;4928016;28;20498;-67
2021/03/21 07:05:00;;;;;;;43.42;6.25;;;10.70;58.00;;;;;;4921545;28;20043;-68
2021/03/21 07:08:10;;;;;;;43.28;6.38;;;10.70;58.00;;;;;;4920768;28;20063;-67
2021/03/21 07:11:14;;;;;;;51.10;6.45;;;10.70;57.90;;;;;;4922646;28;20035;-67
2021/03/21 07:14:07;;;;;;;46.28;6.03;;;10.80;57.50;;;;;;4934088;28;20039;-67
2021/03/21 07:17:14;;;;;;;41.47;6.15;;;10.80;57.30;;;;;;4931077;28;20319;-67
2021/03/21 07:20:16;;;;;;;49.45;6.20;;;10.70;57.30;;;;;;4940975;28;20031;-67
2021/03/21 07:23:29;;;;;;;44.05;5.70;;;10.80;57.20;;;;;;4931784;28;20057;-67
2021/03/21 07:26:16;;;;;;;43.20;6.75;;;10.80;57.20;;;;;;4933244;28;20047;-67
2021/03/21 07:29:12;;;;;;;50.20;6.40;;;10.80;56.80;;;;;;4933628;28;20036;-67
2021/03/21 07:32:23;;;;;;;50.10;6.80;;;10.80;56.70;;;;;;4940271;28;20031;-67
2021/03/21 07:35:13;;;;;;;48.85;8.10;;;10.80;56.80;;;;;;4931025;28;20109;-67
2021/03/21 07:37:51;;;;;;;39.47;6.57;;;10.90;56.80;;;;;;4931588;28;20030;-67
2021/03/21 07:40:48;;;;;;;48.53;6.88;;;10.90;56.80;;;;;;4924595;28;20036;-68
2021/03/21 07:43:49;;;;;;;38.92;7.07;;;11.00;56.50;;;;;;4922390;28;20040;-68
2021/03/21 07:46:36;;;;;;;42.60;7.47;;;11.10;56.30;;;;;;4915175;28;20089;-67
2021/03/21 07:49:14;;;;;;;44.58;7.00;;;11.20;56.20;;;;;;4914906;28;20536;-67
2021/03/21 07:51:50;;;;;;;59.03;7.55;;;;;;;;;;4917540;28;20138;-67
2021/03/21 07:54:24;;;;;;;47.83;7.25;;;;;;;;;;4915364;28;20681;-67
2021/03/21 07:56:53;;;;;;;46.85;6.97;;;;;;;;;;4926184;28;20043;-67
2021/03/21 07:59:23;;;;;;;44.33;6.53;;;;;;;;;;4919452;28;20134;-67
2021/03/21 08:01:49;;;;;;;48.58;7.20;;;;;;;;;;4918159;28;20040;-67
2021/03/21 08:04:26;;;;;;;42.13;6.90;;;;;;;;;;4926275;28;20555;-67
2021/03/21 08:07:10;;;;;;;41.08;6.97;;;;;;;;;;4920207;28;20489;-68
2021/03/21 08:09:38;;;;;;;57.22;8.10;;;;;;;;;;4914868;28;20035;-68
2021/03/21 08:12:19;;;;;;;46.95;6.85;;;;;;;;;;4919398;28;20067;-67
2021/03/21 08:14:46;;;;;;;56.30;8.60;;;;;;;;;;4917735;28;20138;-68
2021/03/21 08:17:35;;;;;;;50.42;6.88;;;;;;;;;;4923153;28;20040;-67
2021/03/21 08:20:15;;;;;;;47.38;6.95;;;;;;;;;;4921975;28;20136;-67
2021/03/21 08:22:41;;;;;;;56.67;9.05;;;;;;;;;;4919821;28;20665;-68
2021/03/21 08:25:15;;;;;;;47.38;7.93;;;;;;;;;;4918421;28;20039;-68
2021/03/21 08:27:41;;;;;;;47.85;7.20;;;;;;;;;;4926081;28;20051;-68
2021/03/21 08:30:11;;;;;;;51.03;7.50;;;;;;;;;;4922622;28;20062;-68
2021/03/21 08:32:50;;;;;;;43.28;7.03;;;;;;;;;;4924276;28;20943;-68
2021/03/21 08:35:18;;;;;;;47.97;7.25;;;;;;;;;;4923744;28;20475;-69
2021/03/21 08:37:46;;;;;;;53.33;7.65;;;;;;;;;;4931069;28;20118;-68
2021/03/21 08:40:22;;;;;;;44.28;7.22;;;;;;;;;;4924846;28;20524;-69
2021/03/21 08:42:50;;;;;;;51.55;7.50;;;;;;;;;;4924379;28;20035;-68
2021/03/21 08:45:30;;;;;;;49.35;8.23;;;;;;;;;;4924984;28;20067;-66
2021/03/21 08:48:21;;;;;;;49.33;7.30;;;;;;;;;;4925510;28;20058;-69
2021/03/21 08:50:48;;;;;;;39.38;7.35;;;;;;;;;;4926199;28;20488;-70
2021/03/21 08:53:32;;;;;;;40.65;6.68;;;;;;;;;;4924372;28;20057;-69
2021/03/21 08:56:17;;;;;;;52.42;7.28;;;;;;;;;;4920355;28;22059;-68
2021/03/21 08:58:43;;;;;;;37.60;6.90;;;;;;;;;;4927580;28;20043;-70
2021/03/21 09:01:16;;;;;;;46.17;6.82;;;11.20;55.90;;;;;;4923430;28;20102;-67
2021/03/21 09:03:42;;;;;;;69.05;8.32;;;;;;;;;;4925693;28;20436;-69
2021/03/21 09:06:13;;;;;;;50.92;6.95;;;;;;;;;;4927331;28;23771;-69
2021/03/21 09:08:41;;;;;;;46.90;7.55;;;;;;;;;;4918301;28;20418;-68
2021/03/21 09:11:12;;;;;;;52.50;8.38;;;;;;;;;;4921874;28;20036;-69
2021/03/21 09:13:38;;;;;;;46.72;6.68;;;12.30;51.70;;;;;;4925002;28;20055;-70
2021/03/21 09:16:11;;;;;;;49.35;7.38;;;12.60;51.60;;;;;;4915349;28;20170;-68
2021/03/21 09:18:42;;;;;;;57.63;8.45;;;12.70;51.30;;;;;;4916331;28;20047;-68
2021/03/21 09:21:20;;;;;;;43.97;6.55;;;12.80;51.80;;;;;;4918478;28;20074;-69
2021/03/21 09:23:47;;;;;;;42.67;6.95;;;12.80;51.40;;;;;;4927199;28;21820;-69
2021/03/21 09:26:12;;;;;;;46.80;6.95;;;13.00;51.10;;;;;;4921400;28;20672;-70
2021/03/21 09:28:44;;;;;;;48.30;6.45;;;13.10;51.10;;;;;;4923807;28;20051;-69
2021/03/21 09:31:13;;;;;;;57.17;7.63;;;13.30;50.30;;;;;;4930646;28;20489;-69
2021/03/21 09:33:45;;;;;;;43.40;6.53;;;;;;;;;;4922813;28;20393;-69
2021/03/21 09:36:47;;;;;;;42.22;6.10;;;13.40;50.30;;;;;;4928793;28;20066;-70
2021/03/21 09:39:17;;;;;;;44.83;7.57;;;;;;;;;;4923154;28;20035;-69
2021/03/21 09:41:43;;;;;;;51.92;7.38;;;;;;;;;;4932866;28;20035;-69
2021/03/21 09:44:20;;;;;;;47.95;6.35;;;;;;;;;;4922585;28;20126;-69
2021/03/21 09:46:52;;;;;;;47.35;6.38;;;;;;;;;;4928334;28;20023;-69
2021/03/21 09:49:29;;;;;;;44.55;7.15;;;;;;;;;;4921286;28;20070;-70
2021/03/21 09:52:19;;;;;;;55.25;6.72;;;;;;;;;;4930480;28;20122;-69
2021/03/21 09:55:03;;;;;;;53.03;7.03;;;;;;;;;;4919340;28;20031;-69
2021/03/21 09:57:29;;;;;;;43.75;6.47;;;;;;;;;;4920397;28;20050;-67
2021/03/21 09:59:59;;;;;;;51.78;6.88;;;;;;;;;;4913240;28;20040;-67
2021/03/21 10:02:25;;;;;;;44.15;6.28;;;13.50;49.70;;;;;;4929252;28;20064;-68
2021/03/21 10:05:20;;;;;;;50.00;6.65;;;14.00;47.60;;;;;;4926963;28;20130;-69
2021/03/21 10:08:21;;;;;;;43.80;6.25;;;14.10;47.30;;;;;;4926902;28;20049;-69
2021/03/21 10:11:06;;;;;;;43.85;7.72;;;14.30;47.20;;;;;;4924288;28;20047;-68
2021/03/21 10:13:38;;;;;;;36.92;6.78;;;14.70;46.80;;;;;;4926602;28;20070;-70
2021/03/21 10:16:26;;;;;;;46.33;7.20;;;14.90;46.00;;;;;;4931272;28;20051;-69
2021/03/21 10:18:54;;;;;;;41.95;7.35;;;14.90;45.70;;;;;;4925108;28;20212;-69
2021/03/21 10:21:23;;;;;;;33.90;6.80;;;14.80;45.40;;;;;;4919565;28;20129;-69
2021/03/21 10:23:49;;;;;;;42.15;6.85;;;14.70;45.70;;;;;;4921770;28;20035;-68
2021/03/21 10:26:18;;;;;;;39.25;6.93;;;14.90;45.50;;;;;;4932173;28;20083;-71
2021/03/21 10:28:54;;;;;;;36.05;6.43;;;15.00;45.80;;;;;;4923065;28;20126;-68
2021/03/21 10:31:26;;;;;;;40.08;6.43;;;15.10;44.20;;;;;;4929110;28;20035;-69
2021/03/21 10:34:04;;;;;;;35.60;6.63;;;15.00;44.00;;;;;;4915947;28;20042;-69
2021/03/21 10:36:41;;;;;;;32.25;6.35;;;14.90;44.10;;;;;;4919744;28;20035;-68
2021/03/21 10:39:25;;;;;;;53.20;7.05;;;14.90;44.40;;;;;;4928332;28;20066;-68
2021/03/21 10:42:05;;;;;;;40.55;6.28;;;14.90;44.50;;;;;;4916676;28;20058;-69
2021/03/21 10:44:33;;;;;;;31.15;5.90;;;14.80;44.30;;;;;;4915778;28;20175;-68
2021/03/21 10:47:11;;;;;;;40.67;6.70;;;14.80;44.00;;;;;;4922875;28;20070;-68
2021/03/21 10:50:07;;;;;;;42.55;7.00;;;14.60;43.80;;;;;;4918919;28;20039;-68
2021/03/21 10:52:44;;;;;;;34.50;6.00;;;14.50;44.20;;;;;;4927969;28;20031;-68
2021/03/21 10:55:26;;;;;;;35.83;6.57;;;14.50;45.00;;;;;;4924672;28;20485;-67
2021/03/21 10:57:52;;;;;;;48.83;6.22;;;14.50;44.60;;;;;;4926252;28;20149;-68
2021/03/21 11:00:25;;;;;;;49.13;6.22;;;14.50;44.40;;;;;;4940031;28;20051;-66
2021/03/21 11:03:16;;;;;;;46.05;6.55;;;14.50;44.50;;;;;;4923800;28;20489;-71
2021/03/21 11:05:56;;;;;;;42.70;6.45;;;14.60;44.50;;;;;;4926803;28;20049;-70
2021/03/21 11:08:30;;;;;;;35.50;6.25;;;14.60;44.40;;;;;;4918845;28;20090;-69
2021/03/21 11:11:13;;;;;;;38.40;7.47;;;14.70;43.90;;;;;;4925393;28;20039;-68
2021/03/21 11:13:38;;;;;;;37.05;6.53;;;14.70;43.20;;;;;;4923272;28;21326;-69
2021/03/21 11:16:27;;;;;;;40.00;6.07;;;;;;;;;;4927679;28;20039;-69
2021/03/21 11:19:04;;;;;;;35.38;5.82;;;14.60;43.80;;;;;;4928358;28;20097;-69
2021/03/21 11:21:36;;;;;;;36.50;6.07;;;14.50;43.80;;;;;;4930998;28;20075;-69
2021/03/21 11:24:35;;;;;;;39.30;6.55;;;14.60;44.10;;;;;;4924465;28;20039;-69
2021/03/21 11:27:05;;;;;;;37.17;6.00;;;;;;;;;;4923916;28;20031;-69
2021/03/21 11:29:33;;;;;;;27.80;4.70;;;;;;;;;;4925618;28;20031;-69
2021/03/21 11:32:11;;;;;;;33.83;5.40;;;;;;;;;;4925794;28;20040;-70
2021/03/21 11:34:37;;;;;;;33.60;6.10;;;;;;;;;;4924750;28;20031;-69
2021/03/21 11:37:08;;;;;;;32.53;5.50;;;;;;;;;;4928525;28;20118;-69
2021/03/21 11:39:52;;;;;;;35.22;5.47;;;;;;;;;;4919884;28;23814;-69
2021/03/21 11:42:20;;;;;;;36.38;5.82;;;;;;;;;;4920361;28;20058;-69
2021/03/21 11:44:48;;;;;;;40.40;5.57;;;14.60;44.20;;;;;;4923577;28;20047;-69
2021/03/21 11:47:30;;;;;;;40.03;6.03;;;15.50;41.90;;;;;;4921811;28;20077;-69
2021/03/21 11:49:58;;;;;;;32.38;5.68;;;15.30;41.90;;;;;;4922556;28;20569;-69
2021/03/21 11:52:27;;;;;;;46.88;5.50;;;15.20;42.30;;;;;;4933958;28;20055;-69
2021/03/21 11:54:54;;;;;;;30.52;5.57;;;15.10;42.70;;;;;;4926637;28;20043;-69
2021/03/21 11:57:25;;;;;;;28.77;5.93;;;15.10;42.70;;;;;;4926708;28;20605;-69
2021/03/21 12:00:17;;;;;;;28.23;4.85;;;15.10;42.90;;;;;;4928535;28;20498;-68
2021/03/21 12:03:04;;;;;;;31.98;5.22;;;;;;;;;;4922109;28;20066;-68
2021/03/21 12:05:37;;;;;;;27.20;5.35;;;15.20;42.70;;;;;;4933269;28;20556;-68
2021/03/21 12:08:23;;;;;;;39.05;5.45;;;15.40;42.00;;;;;;4922747;28;20043;-68
2021/03/21 12:10:52;;;;;;;31.85;5.65;;;;;;;;;;4918278;28;20047;-68
2021/03/21 12:13:25;;;;;;;39.70;5.63;;;15.40;42.20;;;;;;4922952;28;20083;-68
2021/03/21 12:15:51;;;;;;;33.20;5.28;;;15.30;41.40;;;;;;4943424;28;20039;-68
2021/03/21 12:18:22;;;;;;;32.25;5.70;;;15.20;41.30;;;;;;4929065;28;20055;-67
2021/03/21 12:20:56;;;;;;;30.17;5.65;;;15.00;41.90;;;;;;4926870;28;20046;-68
2021/03/21 12:23:54;;;;;;;34.63;5.65;;;14.90;42.10;;;;;;4921595;28;20452;-67
2021/03/21 12:26:33;;;;;;;36.70;6.13;;;14.90;42.30;;;;;;4907863;28;20466;-69
2021/03/21 12:29:23;;;;;;;25.95;4.50;;;14.80;43.00;;;;;;4910688;28;20179;-68
2021/03/21 12:32:13;;;;;;;35.60;4.68;;;14.70;42.70;;;;;;4915684;28;20036;-68
2021/03/21 12:34:46;;;;;;;34.13;5.38;;;14.70;42.70;;;;;;4910747;28;20453;-67
2021/03/21 12:37:18;;;;;;;29.02;4.60;;;;;;;;;;4916243;28;20872;-69
2021/03/21 12:39:51;;;;;;;25.60;4.32;;;14.60;42.70;;;;;;4915279;28;20043;-67
2021/03/21 12:42:26;;;;;;;33.58;5.47;;;14.40;42.50;;;;;;4916246;28;20527;-67
2021/03/21 12:45:13;;;;;;;28.15;4.90;;;14.30;42.40;;;;;;4918703;28;20122;-67
2021/03/21 12:47:42;;;;;;;30.92;4.55;;;14.20;42.70;;;;;;4903745;28;20102;-67
2021/03/21 12:50:29;;;;;;;35.03;5.05;;;14.00;42.90;;;;;;4920805;28;20084;-67
2021/03/21 12:52:55;;;;;;;28.98;4.90;;;13.90;43.20;;;;;;4913533;28;20048;-66
2021/03/21 12:55:21;;;;;;;29.95;5.53;;;13.90;43.50;;;;;;4915565;28;20036;-66
2021/03/21 12:57:47;;;;;;;32.45;4.85;;;;;;;;;;4915084;28;20036;-69
2021/03/21 13:00:17;;;;;;;29.85;5.10;;;;;;;;;;4920175;28;20044;-68
2021/03/21 13:02:43;;;;;;;30.40;4.80;;;;;;;;;;4910497;28;21584;-68
2021/03/21 13:05:17;;;;;;;37.90;5.82;;;;;;;;;;4916435;28;20047;-69
2021/03/21 13:07:43;;;;;;;23.45;4.47;;;;;;;;;;4920273;28;20461;-69
2021/03/21 13:10:09;;;;;;;28.50;4.93;;;;;;;;;;4915642;28;20057;-69
2021/03/21 13:12:35;;;;;;;34.35;4.93;;;;;;;;;;4910826;28;20742;-70
2021/03/21 13:15:01;;;;;;;26.23;4.47;;;13.90;43.60;;;;;;4914164;28;20114;-68
2021/03/21 13:17:27;;;;;;;24.38;5.25;;;14.40;43.40;;;;;;4914179;28;20050;-67
2021/03/21 13:19:52;;;;;;;38.47;5.43;;;14.60;43.30;;;;;;4914213;28;20294;-68
2021/03/21 13:22:18;;;;;;;27.40;4.78;;;;;;;;;;4912871;28;20039;-69
2021/03/21 13:24:44;;;;;;;32.03;5.22;;;14.70;42.70;;;;;;4919776;28;20043;-69
2021/03/21 13:27:10;;;;;;;31.70;5.38;;;14.80;42.50;;;;;;4926392;28;20110;-69
2021/03/21 13:29:36;;;;;;;30.85;5.20;;;14.80;42.20;;;;;;4917619;28;20059;-67
2021/03/21 13:32:04;;;;;;;31.85;4.65;;;14.70;42.80;;;;;;4926800;28;20182;-69
2021/03/21 13:34:32;;;;;;;40.60;5.38;;;;;;;;;;4924171;28;20036;-69
2021/03/21 13:37:01;;;;;;;21.02;4.32;;;14.60;41.90;;;;;;4926484;28;20527;-69
2021/03/21 13:39:30;;;;;;;23.95;4.50;;;14.10;42.60;;;;;;4923946;28;20400;-69
2021/03/21 13:41:58;;;;;;;30.50;4.32;;;;;;;;;;4927368;28;20118;-69
2021/03/21 13:44:24;;;;;;;24.35;4.25;;;;;;;;;;4922966;28;20658;-69
2021/03/21 13:46:50;;;;;;;32.00;5.28;;;;;;;;;;4917117;28;20051;-69
2021/03/21 13:49:20;;;;;;;39.08;5.28;;;;;;;;;;4923444;28;20061;-69
2021/03/21 13:51:48;;;;;;;26.25;4.65;;;;;;;;;;4921107;28;20043;-68